sensor_id;sensor_type;location;lat;lon;timestamp;P1;durP1;ratioP1;P2;durP2;ratioP2
12896;SDS011;6516;35.028;32.372;2023-06-04T00:00:29;17.67;;;9.82;;
12896;SDS011;6516;35.028;32.372;2023-06-04T00:02:56;17.80;;;9.00;;
12896;SDS011;6516;35.028;32.372;2023-06-04T00:05:24;22.13;;;9.18;;
12896;SDS011;6516;35.028;32.372;2023-06-04T00:07:52;18.75;;;8.48;;
12896;SDS011;6516;35.028;32.372;2023-06-04T00:10:20;18.27;;;8.57;;
12896;SDS011;6516;35.028;32.372;2023-06-04T00:12:48;22.33;;;9.43;;
12896;SDS011;6516;35.028;32.372;2023-06-04T00:15:17;15.20;;;8.50;;
12896;SDS011;6516;35.028;32.372;2023-06-04T00:17:45;17.60;;;8.43;;
12896;SDS011;6516;35.028;32.372;2023-06-04T00:20:13;19.75;;;8.80;;
12896;SDS011;6516;35.028;32.372;2023-06-04T00:22:43;16.35;;;8.65;;
12896;SDS011;6516;35.028;32.372;2023-06-04T00:25:11;18.52;;;8.20;;
12896;SDS011;6516;35.028;32.372;2023-06-04T00:27:38;20.77;;;8.43;;
12896;SDS011;6516;35.028;32.372;2023-06-04T00:30:07;20.58;;;9.05;;
12896;SDS011;6516;35.028;32.372;2023-06-04T00:32:37;18.52;;;8.90;;
12896;SDS011;6516;35.028;32.372;2023-06-04T00:35:05;17.95;;;9.07;;
12896;SDS011;6516;35.028;32.372;2023-06-04T00:37:34;17.73;;;9.07;;
12896;SDS011;6516;35.028;32.372;2023-06-04T00:40:02;15.23;;;8.73;;
12896;SDS011;6516;35.028;32.372;2023-06-04T00:42:33;20.63;;;9.05;;
12896;SDS011;6516;35.028;32.372;2023-06-04T00:45:00;20.38;;;9.13;;
12896;SDS011;6516;35.028;32.372;2023-06-04T00:47:29;16.92;;;9.40;;
12896;SDS011;6516;35.028;32.372;2023-06-04T00:49:58;21.73;;;9.50;;
12896;SDS011;6516;35.028;32.372;2023-06-04T00:52:26;17.93;;;8.60;;
12896;SDS011;6516;35.028;32.372;2023-06-04T00:54:54;17.83;;;9.32;;
12896;SDS011;6516;35.028;32.372;2023-06-04T00:57:22;19.50;;;9.43;;
12896;SDS011;6516;35.028;32.372;2023-06-04T00:59:49;21.58;;;9.35;;
12896;SDS011;6516;35.028;32.372;2023-06-04T01:02:18;19.00;;;8.90;;
12896;SDS011;6516;35.028;32.372;2023-06-04T01:04:53;21.70;;;9.10;;
12896;SDS011;6516;35.028;32.372;2023-06-04T01:07:29;16.95;;;8.93;;
12896;SDS011;6516;35.028;32.372;2023-06-04T01:09:57;16.88;;;9.18;;
12896;SDS011;6516;35.028;32.372;2023-06-04T01:12:25;23.00;;;9.32;;
12896;SDS011;6516;35.028;32.372;2023-06-04T01:14:53;22.10;;;9.35;;
12896;SDS011;6516;35.028;32.372;2023-06-04T01:17:23;19.50;;;9.73;;
12896;SDS011;6516;35.028;32.372;2023-06-04T01:23:14;19.98;;;9.70;;
12896;SDS011;6516;35.028;32.372;2023-06-04T01:25:59;21.55;;;9.80;;
12896;SDS011;6516;35.028;32.372;2023-06-04T01:28:29;19.38;;;9.77;;
12896;SDS011;6516;35.028;32.372;2023-06-04T01:30:59;21.47;;;9.50;;
12896;SDS011;6516;35.028;32.372;2023-06-04T01:33:28;18.55;;;9.35;;
12896;SDS011;6516;35.028;32.372;2023-06-04T01:35:57;19.48;;;9.30;;
12896;SDS011;6516;35.028;32.372;2023-06-04T01:38:26;19.58;;;9.25;;
12896;SDS011;6516;35.028;32.372;2023-06-04T01:40:54;19.88;;;9.07;;
12896;SDS011;6516;35.028;32.372;2023-06-04T01:43:27;19.80;;;9.30;;
12896;SDS011;6516;35.028;32.372;2023-06-04T01:45:55;19.80;;;9.60;;
12896;SDS011;6516;35.028;32.372;2023-06-04T01:48:23;16.13;;;9.32;;
12896;SDS011;6516;35.028;32.372;2023-06-04T01:50:51;21.98;;;9.90;;
12896;SDS011;6516;35.028;32.372;2023-06-04T01:53:20;17.92;;;9.40;;
12896;SDS011;6516;35.028;32.372;2023-06-04T01:55:48;15.70;;;9.57;;
12896;SDS011;6516;35.028;32.372;2023-06-04T01:58:16;19.42;;;10.02;;
12896;SDS011;6516;35.028;32.372;2023-06-04T02:00:48;21.75;;;10.43;;
12896;SDS011;6516;35.028;32.372;2023-06-04T02:03:18;20.88;;;10.40;;
12896;SDS011;6516;35.028;32.372;2023-06-04T02:05:45;24.75;;;9.85;;
12896;SDS011;6516;35.028;32.372;2023-06-04T02:08:14;21.13;;;9.93;;
12896;SDS011;6516;35.028;32.372;2023-06-04T02:10:47;21.17;;;9.23;;
12896;SDS011;6516;35.028;32.372;2023-06-04T02:13:15;20.45;;;10.02;;
12896;SDS011;6516;35.028;32.372;2023-06-04T02:15:43;18.05;;;9.52;;
12896;SDS011;6516;35.028;32.372;2023-06-04T02:18:11;20.58;;;9.63;;
12896;SDS011;6516;35.028;32.372;2023-06-04T02:20:42;20.70;;;9.33;;
12896;SDS011;6516;35.028;32.372;2023-06-04T02:23:11;20.77;;;9.73;;
12896;SDS011;6516;35.028;32.372;2023-06-04T02:25:40;19.63;;;9.70;;
12896;SDS011;6516;35.028;32.372;2023-06-04T02:28:11;17.80;;;9.70;;
12896;SDS011;6516;35.028;32.372;2023-06-04T02:30:40;18.65;;;10.45;;
12896;SDS011;6516;35.028;32.372;2023-06-04T02:33:08;20.67;;;10.53;;
12896;SDS011;6516;35.028;32.372;2023-06-04T02:35:36;17.52;;;10.13;;
12896;SDS011;6516;35.028;32.372;2023-06-04T02:38:04;19.27;;;9.55;;
12896;SDS011;6516;35.028;32.372;2023-06-04T02:40:32;15.98;;;9.85;;
12896;SDS011;6516;35.028;32.372;2023-06-04T02:43:00;18.65;;;9.40;;
12896;SDS011;6516;35.028;32.372;2023-06-04T02:45:29;15.63;;;9.53;;
12896;SDS011;6516;35.028;32.372;2023-06-04T02:47:57;21.45;;;9.77;;
12896;SDS011;6516;35.028;32.372;2023-06-04T02:50:25;21.88;;;9.48;;
12896;SDS011;6516;35.028;32.372;2023-06-04T02:52:53;17.15;;;10.00;;
12896;SDS011;6516;35.028;32.372;2023-06-04T02:55:20;18.55;;;9.63;;
12896;SDS011;6516;35.028;32.372;2023-06-04T02:57:48;17.63;;;9.90;;
12896;SDS011;6516;35.028;32.372;2023-06-04T03:00:17;18.33;;;8.98;;
12896;SDS011;6516;35.028;32.372;2023-06-04T03:02:47;24.08;;;10.13;;
12896;SDS011;6516;35.028;32.372;2023-06-04T03:05:15;21.25;;;10.10;;
12896;SDS011;6516;35.028;32.372;2023-06-04T03:07:45;20.60;;;10.27;;
12896;SDS011;6516;35.028;32.372;2023-06-04T03:10:14;18.77;;;10.27;;
12896;SDS011;6516;35.028;32.372;2023-06-04T03:12:42;18.45;;;9.70;;
12896;SDS011;6516;35.028;32.372;2023-06-04T03:15:10;19.98;;;9.85;;
12896;SDS011;6516;35.028;32.372;2023-06-04T03:17:40;18.50;;;10.18;;
12896;SDS011;6516;35.028;32.372;2023-06-04T03:20:11;18.35;;;9.50;;
12896;SDS011;6516;35.028;32.372;2023-06-04T03:22:38;18.27;;;9.07;;
12896;SDS011;6516;35.028;32.372;2023-06-04T03:25:06;16.52;;;8.70;;
12896;SDS011;6516;35.028;32.372;2023-06-04T03:27:35;21.40;;;9.30;;
12896;SDS011;6516;35.028;32.372;2023-06-04T03:30:03;20.00;;;9.15;;
12896;SDS011;6516;35.028;32.372;2023-06-04T03:32:32;18.80;;;8.98;;
12896;SDS011;6516;35.028;32.372;2023-06-04T03:35:00;16.80;;;9.23;;
12896;SDS011;6516;35.028;32.372;2023-06-04T03:37:30;18.55;;;8.63;;
12896;SDS011;6516;35.028;32.372;2023-06-04T03:39:59;24.55;;;9.00;;
12896;SDS011;6516;35.028;32.372;2023-06-04T03:42:27;19.63;;;9.20;;
12896;SDS011;6516;35.028;32.372;2023-06-04T03:44:55;16.92;;;9.05;;
12896;SDS011;6516;35.028;32.372;2023-06-04T03:47:24;19.80;;;9.10;;
12896;SDS011;6516;35.028;32.372;2023-06-04T03:49:52;18.50;;;8.63;;
12896;SDS011;6516;35.028;32.372;2023-06-04T03:52:20;18.70;;;8.45;;
12896;SDS011;6516;35.028;32.372;2023-06-04T03:54:49;16.13;;;8.85;;
12896;SDS011;6516;35.028;32.372;2023-06-04T03:57:17;19.83;;;8.52;;
12896;SDS011;6516;35.028;32.372;2023-06-04T03:59:44;19.47;;;8.43;;
12896;SDS011;6516;35.028;32.372;2023-06-04T04:02:12;18.98;;;9.00;;
12896;SDS011;6516;35.028;32.372;2023-06-04T04:04:40;17.10;;;8.68;;
12896;SDS011;6516;35.028;32.372;2023-06-04T04:07:08;18.58;;;9.40;;
12896;SDS011;6516;35.028;32.372;2023-06-04T04:09:36;18.67;;;8.15;;
12896;SDS011;6516;35.028;32.372;2023-06-04T04:12:06;17.13;;;8.63;;
12896;SDS011;6516;35.028;32.372;2023-06-04T04:14:34;16.15;;;7.72;;
12896;SDS011;6516;35.028;32.372;2023-06-04T04:17:02;17.50;;;8.43;;
12896;SDS011;6516;35.028;32.372;2023-06-04T04:19:30;13.93;;;7.65;;
12896;SDS011;6516;35.028;32.372;2023-06-04T04:21:58;17.20;;;8.05;;
12896;SDS011;6516;35.028;32.372;2023-06-04T04:24:26;14.93;;;7.70;;
12896;SDS011;6516;35.028;32.372;2023-06-04T04:26:54;14.10;;;7.57;;
12896;SDS011;6516;35.028;32.372;2023-06-04T04:29:25;20.88;;;8.43;;
12896;SDS011;6516;35.028;32.372;2023-06-04T04:31:58;15.48;;;7.97;;
12896;SDS011;6516;35.028;32.372;2023-06-04T04:34:35;17.55;;;7.25;;
12896;SDS011;6516;35.028;32.372;2023-06-04T04:37:05;17.87;;;7.30;;
12896;SDS011;6516;35.028;32.372;2023-06-04T04:39:35;13.45;;;6.88;;
12896;SDS011;6516;35.028;32.372;2023-06-04T04:42:03;14.77;;;6.78;;
12896;SDS011;6516;35.028;32.372;2023-06-04T04:44:33;14.55;;;6.93;;
12896;SDS011;6516;35.028;32.372;2023-06-04T04:47:01;12.50;;;6.70;;
12896;SDS011;6516;35.028;32.372;2023-06-04T04:49:28;16.80;;;6.67;;
12896;SDS011;6516;35.028;32.372;2023-06-04T04:51:56;31.58;;;7.93;;
12896;SDS011;6516;35.028;32.372;2023-06-04T04:54:24;21.52;;;7.15;;
12896;SDS011;6516;35.028;32.372;2023-06-04T04:56:52;17.65;;;7.13;;
12896;SDS011;6516;35.028;32.372;2023-06-04T04:59:19;19.60;;;6.75;;
12896;SDS011;6516;35.028;32.372;2023-06-04T05:01:49;27.17;;;6.83;;
12896;SDS011;6516;35.028;32.372;2023-06-04T05:04:19;20.20;;;7.00;;
12896;SDS011;6516;35.028;32.372;2023-06-04T05:06:47;16.83;;;6.20;;
12896;SDS011;6516;35.028;32.372;2023-06-04T05:09:15;23.27;;;6.75;;
12896;SDS011;6516;35.028;32.372;2023-06-04T05:11:43;14.88;;;6.30;;
12896;SDS011;6516;35.028;32.372;2023-06-04T05:14:11;14.53;;;6.10;;
12896;SDS011;6516;35.028;32.372;2023-06-04T05:16:39;14.40;;;5.80;;
12896;SDS011;6516;35.028;32.372;2023-06-04T05:19:08;19.75;;;6.03;;
12896;SDS011;6516;35.028;32.372;2023-06-04T05:21:37;18.02;;;5.68;;
12896;SDS011;6516;35.028;32.372;2023-06-04T05:24:04;20.00;;;6.07;;
12896;SDS011;6516;35.028;32.372;2023-06-04T05:26:32;17.33;;;5.83;;
12896;SDS011;6516;35.028;32.372;2023-06-04T05:29:00;18.17;;;5.80;;
12896;SDS011;6516;35.028;32.372;2023-06-04T05:31:29;12.07;;;5.88;;
12896;SDS011;6516;35.028;32.372;2023-06-04T05:33:58;13.32;;;5.53;;
12896;SDS011;6516;35.028;32.372;2023-06-04T05:36:28;17.10;;;5.57;;
12896;SDS011;6516;35.028;32.372;2023-06-04T05:38:57;13.13;;;5.90;;
12896;SDS011;6516;35.028;32.372;2023-06-04T05:41:25;11.30;;;5.35;;
12896;SDS011;6516;35.028;32.372;2023-06-04T05:43:52;11.65;;;5.25;;
12896;SDS011;6516;35.028;32.372;2023-06-04T05:46:20;14.73;;;5.55;;
12896;SDS011;6516;35.028;32.372;2023-06-04T05:48:48;14.38;;;5.63;;
12896;SDS011;6516;35.028;32.372;2023-06-04T05:51:16;13.10;;;5.73;;
12896;SDS011;6516;35.028;32.372;2023-06-04T05:53:45;12.70;;;5.55;;
12896;SDS011;6516;35.028;32.372;2023-06-04T05:56:13;14.77;;;5.75;;
12896;SDS011;6516;35.028;32.372;2023-06-04T05:58:41;13.80;;;5.78;;
12896;SDS011;6516;35.028;32.372;2023-06-04T06:01:10;12.63;;;5.93;;
12896;SDS011;6516;35.028;32.372;2023-06-04T06:03:37;11.97;;;5.60;;
12896;SDS011;6516;35.028;32.372;2023-06-04T06:06:05;16.35;;;6.00;;
12896;SDS011;6516;35.028;32.372;2023-06-04T06:08:35;12.52;;;5.50;;
12896;SDS011;6516;35.028;32.372;2023-06-04T06:11:05;16.23;;;5.95;;
12896;SDS011;6516;35.028;32.372;2023-06-04T06:13:33;12.27;;;5.22;;
12896;SDS011;6516;35.028;32.372;2023-06-04T06:16:01;12.73;;;5.57;;
12896;SDS011;6516;35.028;32.372;2023-06-04T06:18:29;12.77;;;5.53;;
12896;SDS011;6516;35.028;32.372;2023-06-04T06:20:58;12.27;;;5.60;;
12896;SDS011;6516;35.028;32.372;2023-06-04T06:23:25;16.48;;;6.05;;
12896;SDS011;6516;35.028;32.372;2023-06-04T06:25:53;18.25;;;5.80;;
12896;SDS011;6516;35.028;32.372;2023-06-04T06:28:23;19.97;;;5.80;;
12896;SDS011;6516;35.028;32.372;2023-06-04T06:30:51;13.45;;;5.32;;
12896;SDS011;6516;35.028;32.372;2023-06-04T06:33:19;14.32;;;5.10;;
12896;SDS011;6516;35.028;32.372;2023-06-04T06:35:48;17.55;;;5.47;;
12896;SDS011;6516;35.028;32.372;2023-06-04T06:38:16;16.55;;;5.57;;
12896;SDS011;6516;35.028;32.372;2023-06-04T06:40:44;14.20;;;5.23;;
12896;SDS011;6516;35.028;32.372;2023-06-04T06:43:12;12.02;;;5.20;;
12896;SDS011;6516;35.028;32.372;2023-06-04T06:45:42;12.65;;;5.40;;
12896;SDS011;6516;35.028;32.372;2023-06-04T06:48:10;12.02;;;5.45;;
12896;SDS011;6516;35.028;32.372;2023-06-04T06:50:38;14.30;;;5.28;;
12896;SDS011;6516;35.028;32.372;2023-06-04T06:53:06;13.83;;;5.73;;
12896;SDS011;6516;35.028;32.372;2023-06-04T06:55:33;18.42;;;5.78;;
12896;SDS011;6516;35.028;32.372;2023-06-04T06:58:01;21.17;;;5.90;;
12896;SDS011;6516;35.028;32.372;2023-06-04T07:00:29;13.25;;;5.65;;
12896;SDS011;6516;35.028;32.372;2023-06-04T07:02:59;15.43;;;5.75;;
12896;SDS011;6516;35.028;32.372;2023-06-04T07:05:27;13.50;;;5.27;;
12896;SDS011;6516;35.028;32.372;2023-06-04T07:07:55;11.73;;;5.50;;
12896;SDS011;6516;35.028;32.372;2023-06-04T07:10:25;12.90;;;5.50;;
12896;SDS011;6516;35.028;32.372;2023-06-04T07:12:53;18.10;;;5.78;;
12896;SDS011;6516;35.028;32.372;2023-06-04T07:15:21;12.32;;;5.55;;
12896;SDS011;6516;35.028;32.372;2023-06-04T07:17:49;12.07;;;5.00;;
12896;SDS011;6516;35.028;32.372;2023-06-04T07:20:18;11.52;;;5.00;;
12896;SDS011;6516;35.028;32.372;2023-06-04T07:22:46;15.32;;;5.95;;
12896;SDS011;6516;35.028;32.372;2023-06-04T07:25:14;11.63;;;5.35;;
12896;SDS011;6516;35.028;32.372;2023-06-04T07:27:42;12.45;;;5.35;;
12896;SDS011;6516;35.028;32.372;2023-06-04T07:30:10;20.57;;;5.63;;
12896;SDS011;6516;35.028;32.372;2023-06-04T07:32:38;12.45;;;5.18;;
12896;SDS011;6516;35.028;32.372;2023-06-04T07:35:06;10.23;;;4.70;;
12896;SDS011;6516;35.028;32.372;2023-06-04T07:37:36;12.73;;;5.32;;
12896;SDS011;6516;35.028;32.372;2023-06-04T07:40:05;11.25;;;5.15;;
12896;SDS011;6516;35.028;32.372;2023-06-04T07:42:34;11.20;;;5.53;;
12896;SDS011;6516;35.028;32.372;2023-06-04T07:45:01;14.55;;;6.00;;
12896;SDS011;6516;35.028;32.372;2023-06-04T07:47:30;11.57;;;5.38;;
12896;SDS011;6516;35.028;32.372;2023-06-04T07:49:58;15.88;;;5.25;;
12896;SDS011;6516;35.028;32.372;2023-06-04T07:52:26;13.40;;;5.40;;
12896;SDS011;6516;35.028;32.372;2023-06-04T07:54:55;13.57;;;5.53;;
12896;SDS011;6516;35.028;32.372;2023-06-04T07:57:23;11.65;;;5.03;;
12896;SDS011;6516;35.028;32.372;2023-06-04T07:59:51;15.95;;;5.43;;
12896;SDS011;6516;35.028;32.372;2023-06-04T08:02:19;15.13;;;5.53;;
12896;SDS011;6516;35.028;32.372;2023-06-04T08:04:46;11.70;;;5.30;;
12896;SDS011;6516;35.028;32.372;2023-06-04T08:07:15;19.77;;;5.80;;
12896;SDS011;6516;35.028;32.372;2023-06-04T08:09:43;16.27;;;5.35;;
12896;SDS011;6516;35.028;32.372;2023-06-04T08:12:12;12.55;;;5.88;;
12896;SDS011;6516;35.028;32.372;2023-06-04T08:14:41;14.50;;;5.32;;
12896;SDS011;6516;35.028;32.372;2023-06-04T08:17:09;10.57;;;5.03;;
12896;SDS011;6516;35.028;32.372;2023-06-04T08:19:37;11.20;;;5.57;;
12896;SDS011;6516;35.028;32.372;2023-06-04T08:22:05;9.30;;;4.70;;
12896;SDS011;6516;35.028;32.372;2023-06-04T08:24:34;14.38;;;5.57;;
12896;SDS011;6516;35.028;32.372;2023-06-04T08:27:02;14.68;;;5.15;;
12896;SDS011;6516;35.028;32.372;2023-06-04T08:29:34;13.50;;;5.28;;
12896;SDS011;6516;35.028;32.372;2023-06-04T08:32:02;13.67;;;5.37;;
12896;SDS011;6516;35.028;32.372;2023-06-04T08:34:30;13.20;;;5.15;;
12896;SDS011;6516;35.028;32.372;2023-06-04T08:36:58;13.38;;;5.55;;
12896;SDS011;6516;35.028;32.372;2023-06-04T08:39:26;14.57;;;5.50;;
12896;SDS011;6516;35.028;32.372;2023-06-04T08:41:54;13.77;;;5.45;;
12896;SDS011;6516;35.028;32.372;2023-06-04T08:44:27;12.47;;;5.17;;
12896;SDS011;6516;35.028;32.372;2023-06-04T08:46:58;14.18;;;5.60;;
12896;SDS011;6516;35.028;32.372;2023-06-04T08:49:33;13.93;;;5.40;;
12896;SDS011;6516;35.028;32.372;2023-06-04T08:52:02;14.45;;;5.10;;
12896;SDS011;6516;35.028;32.372;2023-06-04T08:54:31;12.15;;;5.50;;
12896;SDS011;6516;35.028;32.372;2023-06-04T08:57:00;13.33;;;5.20;;
12896;SDS011;6516;35.028;32.372;2023-06-04T08:59:28;16.67;;;5.53;;
12896;SDS011;6516;35.028;32.372;2023-06-04T09:01:57;11.93;;;5.50;;
12896;SDS011;6516;35.028;32.372;2023-06-04T09:04:26;11.65;;;5.18;;
12896;SDS011;6516;35.028;32.372;2023-06-04T09:06:54;13.93;;;5.35;;
12896;SDS011;6516;35.028;32.372;2023-06-04T09:09:26;13.60;;;5.27;;
12896;SDS011;6516;35.028;32.372;2023-06-04T09:11:56;13.02;;;5.70;;
12896;SDS011;6516;35.028;32.372;2023-06-04T09:14:24;11.75;;;5.20;;
12896;SDS011;6516;35.028;32.372;2023-06-04T09:16:53;15.80;;;5.30;;
12896;SDS011;6516;35.028;32.372;2023-06-04T09:19:25;13.65;;;5.57;;
12896;SDS011;6516;35.028;32.372;2023-06-04T09:21:53;12.57;;;5.70;;
12896;SDS011;6516;35.028;32.372;2023-06-04T09:24:23;12.25;;;5.03;;
12896;SDS011;6516;35.028;32.372;2023-06-04T09:26:52;14.70;;;5.50;;
12896;SDS011;6516;35.028;32.372;2023-06-04T09:29:19;10.68;;;5.22;;
12896;SDS011;6516;35.028;32.372;2023-06-04T09:31:56;10.52;;;5.47;;
12896;SDS011;6516;35.028;32.372;2023-06-04T09:34:29;12.13;;;5.23;;
12896;SDS011;6516;35.028;32.372;2023-06-04T09:36:57;14.07;;;5.55;;
12896;SDS011;6516;35.028;32.372;2023-06-04T09:39:25;14.32;;;5.82;;
12896;SDS011;6516;35.028;32.372;2023-06-04T09:41:59;15.68;;;5.65;;
12896;SDS011;6516;35.028;32.372;2023-06-04T09:44:28;14.70;;;6.00;;
12896;SDS011;6516;35.028;32.372;2023-06-04T09:46:56;10.90;;;4.97;;
12896;SDS011;6516;35.028;32.372;2023-06-04T09:49:26;16.17;;;5.80;;
12896;SDS011;6516;35.028;32.372;2023-06-04T09:51:54;12.50;;;5.00;;
12896;SDS011;6516;35.028;32.372;2023-06-04T09:54:22;15.60;;;5.50;;
12896;SDS011;6516;35.028;32.372;2023-06-04T09:56:50;13.68;;;5.60;;
12896;SDS011;6516;35.028;32.372;2023-06-04T09:59:17;15.83;;;5.90;;
12896;SDS011;6516;35.028;32.372;2023-06-04T10:01:46;16.55;;;5.75;;
12896;SDS011;6516;35.028;32.372;2023-06-04T10:04:16;12.38;;;5.15;;
12896;SDS011;6516;35.028;32.372;2023-06-04T10:06:44;12.65;;;5.20;;
12896;SDS011;6516;35.028;32.372;2023-06-04T10:09:12;11.95;;;5.45;;
12896;SDS011;6516;35.028;32.372;2023-06-04T10:11:42;12.47;;;5.13;;
12896;SDS011;6516;35.028;32.372;2023-06-04T10:14:17;12.55;;;5.55;;
12896;SDS011;6516;35.028;32.372;2023-06-04T10:16:49;13.13;;;5.50;;
12896;SDS011;6516;35.028;32.372;2023-06-04T10:19:20;8.90;;;5.25;;
12896;SDS011;6516;35.028;32.372;2023-06-04T10:21:48;11.40;;;5.60;;
12896;SDS011;6516;35.028;32.372;2023-06-04T10:24:16;12.50;;;5.03;;
12896;SDS011;6516;35.028;32.372;2023-06-04T10:26:46;12.15;;;5.15;;
12896;SDS011;6516;35.028;32.372;2023-06-04T10:29:15;12.25;;;5.32;;
12896;SDS011;6516;35.028;32.372;2023-06-04T10:31:45;14.57;;;5.13;;
12896;SDS011;6516;35.028;32.372;2023-06-04T10:34:13;12.55;;;5.30;;
12896;SDS011;6516;35.028;32.372;2023-06-04T10:36:43;12.53;;;5.40;;
12896;SDS011;6516;35.028;32.372;2023-06-04T10:39:12;17.27;;;4.85;;
12896;SDS011;6516;35.028;32.372;2023-06-04T10:41:40;11.93;;;5.50;;
12896;SDS011;6516;35.028;32.372;2023-06-04T10:44:08;14.23;;;5.07;;
12896;SDS011;6516;35.028;32.372;2023-06-04T10:46:38;12.75;;;5.47;;
12896;SDS011;6516;35.028;32.372;2023-06-04T10:49:08;13.50;;;5.07;;
12896;SDS011;6516;35.028;32.372;2023-06-04T10:51:37;11.85;;;4.93;;
12896;SDS011;6516;35.028;32.372;2023-06-04T10:54:07;12.32;;;5.38;;
12896;SDS011;6516;35.028;32.372;2023-06-04T10:56:35;11.25;;;5.30;;
12896;SDS011;6516;35.028;32.372;2023-06-04T10:59:12;11.68;;;5.25;;
12896;SDS011;6516;35.028;32.372;2023-06-04T11:01:42;16.57;;;5.57;;
12896;SDS011;6516;35.028;32.372;2023-06-04T11:04:18;14.45;;;5.50;;
12896;SDS011;6516;35.028;32.372;2023-06-04T11:06:59;10.50;;;5.18;;
12896;SDS011;6516;35.028;32.372;2023-06-04T11:09:30;12.45;;;5.00;;
12896;SDS011;6516;35.028;32.372;2023-06-04T11:11:58;10.35;;;5.40;;
12896;SDS011;6516;35.028;32.372;2023-06-04T11:14:27;9.80;;;4.70;;
12896;SDS011;6516;35.028;32.372;2023-06-04T11:16:55;14.13;;;5.28;;
12896;SDS011;6516;35.028;32.372;2023-06-04T11:19:22;15.60;;;5.40;;
12896;SDS011;6516;35.028;32.372;2023-06-04T11:21:50;14.98;;;5.80;;
12896;SDS011;6516;35.028;32.372;2023-06-04T11:24:18;12.98;;;5.82;;
12896;SDS011;6516;35.028;32.372;2023-06-04T11:26:47;12.80;;;5.43;;
12896;SDS011;6516;35.028;32.372;2023-06-04T11:29:15;13.02;;;5.05;;
12896;SDS011;6516;35.028;32.372;2023-06-04T11:31:43;10.82;;;5.57;;
12896;SDS011;6516;35.028;32.372;2023-06-04T11:34:21;19.52;;;6.32;;
12896;SDS011;6516;35.028;32.372;2023-06-04T11:36:50;14.80;;;5.80;;
12896;SDS011;6516;35.028;32.372;2023-06-04T11:39:19;14.37;;;5.27;;
12896;SDS011;6516;35.028;32.372;2023-06-04T11:41:48;12.57;;;5.30;;
12896;SDS011;6516;35.028;32.372;2023-06-04T11:44:19;13.23;;;5.80;;
12896;SDS011;6516;35.028;32.372;2023-06-04T11:46:47;16.02;;;5.20;;
12896;SDS011;6516;35.028;32.372;2023-06-04T11:49:18;14.27;;;5.57;;
12896;SDS011;6516;35.028;32.372;2023-06-04T11:51:46;14.63;;;5.67;;
12896;SDS011;6516;35.028;32.372;2023-06-04T11:54:15;13.70;;;5.70;;
12896;SDS011;6516;35.028;32.372;2023-06-04T11:56:48;12.88;;;5.50;;
12896;SDS011;6516;35.028;32.372;2023-06-04T11:59:18;13.32;;;5.80;;
12896;SDS011;6516;35.028;32.372;2023-06-04T12:01:46;12.77;;;5.38;;
12896;SDS011;6516;35.028;32.372;2023-06-04T12:04:15;10.80;;;5.43;;
12896;SDS011;6516;35.028;32.372;2023-06-04T12:06:50;11.32;;;5.00;;
12896;SDS011;6516;35.028;32.372;2023-06-04T12:09:19;15.82;;;5.35;;
12896;SDS011;6516;35.028;32.372;2023-06-04T12:11:49;9.77;;;4.82;;
12896;SDS011;6516;35.028;32.372;2023-06-04T12:14:17;13.93;;;5.35;;
12896;SDS011;6516;35.028;32.372;2023-06-04T12:16:54;23.50;;;6.20;;
12896;SDS011;6516;35.028;32.372;2023-06-04T12:19:22;12.95;;;5.65;;
12896;SDS011;6516;35.028;32.372;2023-06-04T12:22:00;11.82;;;5.65;;
12896;SDS011;6516;35.028;32.372;2023-06-04T12:24:29;11.75;;;5.43;;
12896;SDS011;6516;35.028;32.372;2023-06-04T12:27:04;11.15;;;5.50;;
12896;SDS011;6516;35.028;32.372;2023-06-04T12:29:34;13.60;;;5.13;;
12896;SDS011;6516;35.028;32.372;2023-06-04T12:32:02;11.20;;;5.28;;
12896;SDS011;6516;35.028;32.372;2023-06-04T12:34:33;12.48;;;5.55;;
12896;SDS011;6516;35.028;32.372;2023-06-04T12:37:01;12.27;;;5.50;;
12896;SDS011;6516;35.028;32.372;2023-06-04T12:39:31;11.55;;;5.15;;
12896;SDS011;6516;35.028;32.372;2023-06-04T12:41:59;12.53;;;5.23;;
12896;SDS011;6516;35.028;32.372;2023-06-04T12:44:28;11.15;;;4.95;;
12896;SDS011;6516;35.028;32.372;2023-06-04T12:46:56;13.40;;;5.95;;
12896;SDS011;6516;35.028;32.372;2023-06-04T12:49:24;10.90;;;5.07;;
12896;SDS011;6516;35.028;32.372;2023-06-04T12:51:52;12.98;;;4.85;;
12896;SDS011;6516;35.028;32.372;2023-06-04T12:54:23;12.73;;;5.03;;
12896;SDS011;6516;35.028;32.372;2023-06-04T12:56:52;12.20;;;4.93;;
12896;SDS011;6516;35.028;32.372;2023-06-04T12:59:21;10.43;;;5.20;;
12896;SDS011;6516;35.028;32.372;2023-06-04T13:01:51;13.80;;;5.43;;
12896;SDS011;6516;35.028;32.372;2023-06-04T13:04:19;9.88;;;4.72;;
12896;SDS011;6516;35.028;32.372;2023-06-04T13:06:48;13.03;;;5.03;;
12896;SDS011;6516;35.028;32.372;2023-06-04T13:09:17;10.90;;;5.20;;
12896;SDS011;6516;35.028;32.372;2023-06-04T13:11:46;10.52;;;5.03;;
12896;SDS011;6516;35.028;32.372;2023-06-04T13:14:13;13.32;;;5.40;;
12896;SDS011;6516;35.028;32.372;2023-06-04T13:16:41;12.00;;;5.20;;
12896;SDS011;6516;35.028;32.372;2023-06-04T13:19:12;14.93;;;5.50;;
12896;SDS011;6516;35.028;32.372;2023-06-04T13:21:39;9.77;;;4.72;;
12896;SDS011;6516;35.028;32.372;2023-06-04T13:24:09;14.93;;;5.30;;
12896;SDS011;6516;35.028;32.372;2023-06-04T13:26:38;14.20;;;4.93;;
12896;SDS011;6516;35.028;32.372;2023-06-04T13:29:07;10.60;;;4.82;;
12896;SDS011;6516;35.028;32.372;2023-06-04T13:31:35;10.03;;;4.60;;
12896;SDS011;6516;35.028;32.372;2023-06-04T13:34:04;10.75;;;4.85;;
12896;SDS011;6516;35.028;32.372;2023-06-04T13:36:33;11.30;;;4.93;;
12896;SDS011;6516;35.028;32.372;2023-06-04T13:39:01;11.65;;;4.90;;
12896;SDS011;6516;35.028;32.372;2023-06-04T13:41:29;10.73;;;4.50;;
12896;SDS011;6516;35.028;32.372;2023-06-04T13:43:57;10.87;;;4.50;;
12896;SDS011;6516;35.028;32.372;2023-06-04T13:46:24;12.07;;;4.63;;
12896;SDS011;6516;35.028;32.372;2023-06-04T13:48:52;11.38;;;4.70;;
12896;SDS011;6516;35.028;32.372;2023-06-04T13:51:20;10.60;;;4.47;;
12896;SDS011;6516;35.028;32.372;2023-06-04T13:53:49;11.60;;;4.95;;
12896;SDS011;6516;35.028;32.372;2023-06-04T13:56:18;11.67;;;4.57;;
12896;SDS011;6516;35.028;32.372;2023-06-04T13:58:46;10.85;;;4.43;;
12896;SDS011;6516;35.028;32.372;2023-06-04T14:01:14;10.15;;;4.18;;
12896;SDS011;6516;35.028;32.372;2023-06-04T14:03:42;11.60;;;4.55;;
12896;SDS011;6516;35.028;32.372;2023-06-04T14:06:10;10.20;;;4.60;;
12896;SDS011;6516;35.028;32.372;2023-06-04T14:08:38;9.47;;;4.50;;
12896;SDS011;6516;35.028;32.372;2023-06-04T14:11:07;10.38;;;5.00;;
12896;SDS011;6516;35.028;32.372;2023-06-04T14:13:36;10.60;;;5.28;;
12896;SDS011;6516;35.028;32.372;2023-06-04T14:16:06;9.48;;;4.75;;
12896;SDS011;6516;35.028;32.372;2023-06-04T14:18:35;12.50;;;5.03;;
12896;SDS011;6516;35.028;32.372;2023-06-04T14:21:02;11.20;;;5.00;;
12896;SDS011;6516;35.028;32.372;2023-06-04T14:23:30;13.05;;;4.90;;
12896;SDS011;6516;35.028;32.372;2023-06-04T14:25:58;8.85;;;5.22;;
12896;SDS011;6516;35.028;32.372;2023-06-04T14:28:28;13.57;;;5.25;;
12896;SDS011;6516;35.028;32.372;2023-06-04T14:30:56;8.55;;;5.38;;
12896;SDS011;6516;35.028;32.372;2023-06-04T14:33:24;10.90;;;5.40;;
12896;SDS011;6516;35.028;32.372;2023-06-04T14:35:51;15.55;;;5.72;;
12896;SDS011;6516;35.028;32.372;2023-06-04T14:38:19;11.27;;;5.43;;
12896;SDS011;6516;35.028;32.372;2023-06-04T14:40:47;11.95;;;5.45;;
12896;SDS011;6516;35.028;32.372;2023-06-04T14:43:15;11.88;;;5.68;;
12896;SDS011;6516;35.028;32.372;2023-06-04T14:45:44;12.50;;;5.40;;